sensor_id;sensor_type;location;lat;lon;timestamp;P1;durP1;ratioP1;P2;durP2;ratioP2
76989;SDS011;65924;47.250;11.332;2024-03-29T00:00:11;15.80;;;5.00;;
76989;SDS011;65924;47.250;11.332;2024-03-29T00:00:44;8.40;;;3.40;;
76989;SDS011;65924;47.250;11.332;2024-03-29T00:01:15;7.30;;;3.10;;
76989;SDS011;65924;47.250;11.332;2024-03-29T00:01:45;8.30;;;3.10;;
76989;SDS011;65924;47.250;11.332;2024-03-29T00:02:15;6.00;;;3.10;;
76989;SDS011;65924;47.250;11.332;2024-03-29T00:02:46;4.50;;;2.40;;
76989;SDS011;65924;47.250;11.332;2024-03-29T00:03:16;4.80;;;2.70;;
76989;SDS011;65924;47.250;11.332;2024-03-29T00:03:47;5.30;;;2.00;;
76989;SDS011;65924;47.250;11.332;2024-03-29T00:04:17;4.50;;;2.10;;
76989;SDS011;65924;47.250;11.332;2024-03-29T00:04:48;4.90;;;2.40;;
76989;SDS011;65924;47.250;11.332;2024-03-29T00:05:18;4.10;;;2.10;;
76989;SDS011;65924;47.250;11.332;2024-03-29T00:05:49;4.10;;;2.10;;
76989;SDS011;65924;47.250;11.332;2024-03-29T00:06:19;4.50;;;2.70;;
76989;SDS011;65924;47.250;11.332;2024-03-29T00:06:53;4.60;;;2.10;;
76989;SDS011;65924;47.250;11.332;2024-03-29T00:07:23;4.30;;;2.20;;
76989;SDS011;65924;47.250;11.332;2024-03-29T00:07:54;4.30;;;1.90;;
76989;SDS011;65924;47.250;11.332;2024-03-29T00:08:24;5.80;;;3.00;;
76989;SDS011;65924;47.250;11.332;2024-03-29T00:08:55;6.10;;;3.20;;
76989;SDS011;65924;47.250;11.332;2024-03-29T00:09:25;6.80;;;2.80;;
76989;SDS011;65924;47.250;11.332;2024-03-29T00:09:55;7.00;;;2.80;;
76989;SDS011;65924;47.250;11.332;2024-03-29T00:10:26;7.10;;;2.80;;
76989;SDS011;65924;47.250;11.332;2024-03-29T00:10:56;4.70;;;2.20;;
76989;SDS011;65924;47.250;11.332;2024-03-29T00:11:27;8.40;;;3.10;;
76989;SDS011;65924;47.250;11.332;2024-03-29T00:11:58;4.30;;;2.10;;
76989;SDS011;65924;47.250;11.332;2024-03-29T00:12:28;6.10;;;2.80;;
76989;SDS011;65924;47.250;11.332;2024-03-29T00:12:59;6.50;;;3.00;;
76989;SDS011;65924;47.250;11.332;2024-03-29T00:13:29;4.60;;;2.60;;
76989;SDS011;65924;47.250;11.332;2024-03-29T00:14:00;3.90;;;1.80;;
76989;SDS011;65924;47.250;11.332;2024-03-29T00:14:31;4.10;;;2.30;;
76989;SDS011;65924;47.250;11.332;2024-03-29T00:15:02;4.00;;;2.00;;
76989;SDS011;65924;47.250;11.332;2024-03-29T00:15:32;3.70;;;1.70;;
76989;SDS011;65924;47.250;11.332;2024-03-29T00:16:03;4.40;;;2.10;;
76989;SDS011;65924;47.250;11.332;2024-03-29T00:16:34;4.20;;;2.10;;
76989;SDS011;65924;47.250;11.332;2024-03-29T00:17:04;4.10;;;2.20;;
76989;SDS011;65924;47.250;11.332;2024-03-29T00:17:35;3.80;;;2.10;;
76989;SDS011;65924;47.250;11.332;2024-03-29T00:18:05;4.90;;;2.20;;
76989;SDS011;65924;47.250;11.332;2024-03-29T00:18:36;4.10;;;2.10;;
76989;SDS011;65924;47.250;11.332;2024-03-29T00:19:06;4.40;;;2.50;;
76989;SDS011;65924;47.250;11.332;2024-03-29T00:19:37;4.00;;;2.10;;
76989;SDS011;65924;47.250;11.332;2024-03-29T00:20:08;5.10;;;2.70;;
76989;SDS011;65924;47.250;11.332;2024-03-29T00:20:38;4.60;;;2.50;;
76989;SDS011;65924;47.250;11.332;2024-03-29T00:21:09;5.00;;;2.50;;
76989;SDS011;65924;47.250;11.332;2024-03-29T00:21:39;4.60;;;2.40;;
76989;SDS011;65924;47.250;11.332;2024-03-29T00:22:10;4.40;;;2.30;;
76989;SDS011;65924;47.250;11.332;2024-03-29T00:22:40;4.60;;;2.50;;
76989;SDS011;65924;47.250;11.332;2024-03-29T00:23:11;6.70;;;2.40;;
76989;SDS011;65924;47.250;11.332;2024-03-29T00:23:41;5.80;;;3.10;;
76989;SDS011;65924;47.250;11.332;2024-03-29T00:24:14;5.30;;;2.60;;
76989;SDS011;65924;47.250;11.332;2024-03-29T00:24:44;5.40;;;2.90;;
76989;SDS011;65924;47.250;11.332;2024-03-29T00:25:15;6.10;;;2.90;;
76989;SDS011;65924;47.250;11.332;2024-03-29T00:25:45;5.10;;;2.70;;
76989;SDS011;65924;47.250;11.332;2024-03-29T00:26:15;4.30;;;1.80;;
76989;SDS011;65924;47.250;11.332;2024-03-29T00:26:46;4.00;;;1.90;;
76989;SDS011;65924;47.250;11.332;2024-03-29T00:27:17;4.50;;;2.40;;
76989;SDS011;65924;47.250;11.332;2024-03-29T00:27:47;4.40;;;2.60;;
76989;SDS011;65924;47.250;11.332;2024-03-29T00:28:19;4.20;;;2.30;;
76989;SDS011;65924;47.250;11.332;2024-03-29T00:28:50;4.30;;;2.20;;
76989;SDS011;65924;47.250;11.332;2024-03-29T00:29:20;4.10;;;2.20;;
76989;SDS011;65924;47.250;11.332;2024-03-29T00:29:51;4.50;;;2.40;;
76989;SDS011;65924;47.250;11.332;2024-03-29T00:30:25;4.90;;;2.10;;
76989;SDS011;65924;47.250;11.332;2024-03-29T00:30:55;4.30;;;2.20;;
76989;SDS011;65924;47.250;11.332;2024-03-29T00:31:26;4.00;;;2.30;;
76989;SDS011;65924;47.250;11.332;2024-03-29T00:31:57;4.20;;;2.20;;
76989;SDS011;65924;47.250;11.332;2024-03-29T00:32:27;4.30;;;2.20;;
76989;SDS011;65924;47.250;11.332;2024-03-29T00:32:57;3.90;;;2.20;;
76989;SDS011;65924;47.250;11.332;2024-03-29T00:33:28;4.00;;;2.20;;
76989;SDS011;65924;47.250;11.332;2024-03-29T00:33:58;4.50;;;2.40;;
76989;SDS011;65924;47.250;11.332;2024-03-29T00:34:29;4.10;;;2.50;;
76989;SDS011;65924;47.250;11.332;2024-03-29T00:34:59;4.40;;;2.60;;
76989;SDS011;65924;47.250;11.332;2024-03-29T00:35:30;4.10;;;2.30;;
76989;SDS011;65924;47.250;11.332;2024-03-29T00:36:01;4.60;;;3.00;;
76989;SDS011;65924;47.250;11.332;2024-03-29T00:36:32;4.30;;;2.30;;
76989;SDS011;65924;47.250;11.332;2024-03-29T00:37:02;4.10;;;2.30;;
76989;SDS011;65924;47.250;11.332;2024-03-29T00:37:33;4.50;;;2.50;;
76989;SDS011;65924;47.250;11.332;2024-03-29T00:38:03;5.60;;;3.00;;
76989;SDS011;65924;47.250;11.332;2024-03-29T00:38:34;5.00;;;2.50;;
76989;SDS011;65924;47.250;11.332;2024-03-29T00:39:04;5.10;;;2.40;;
76989;SDS011;65924;47.250;11.332;2024-03-29T00:39:35;4.10;;;2.40;;
76989;SDS011;65924;47.250;11.332;2024-03-29T00:40:05;5.60;;;2.90;;
76989;SDS011;65924;47.250;11.332;2024-03-29T00:40:36;4.50;;;2.50;;
76989;SDS011;65924;47.250;11.332;2024-03-29T00:41:06;4.80;;;2.60;;
76989;SDS011;65924;47.250;11.332;2024-03-29T00:41:38;4.40;;;2.80;;
76989;SDS011;65924;47.250;11.332;2024-03-29T00:42:08;4.50;;;2.80;;
76989;SDS011;65924;47.250;11.332;2024-03-29T00:42:40;4.40;;;2.40;;
76989;SDS011;65924;47.250;11.332;2024-03-29T00:43:11;6.60;;;2.30;;
76989;SDS011;65924;47.250;11.332;2024-03-29T00:43:41;4.10;;;2.60;;
76989;SDS011;65924;47.250;11.332;2024-03-29T00:44:12;4.10;;;2.60;;
76989;SDS011;65924;47.250;11.332;2024-03-29T00:44:43;4.40;;;2.60;;
76989;SDS011;65924;47.250;11.332;2024-03-29T00:45:13;4.70;;;2.50;;
76989;SDS011;65924;47.250;11.332;2024-03-29T00:45:43;4.10;;;2.40;;
76989;SDS011;65924;47.250;11.332;2024-03-29T00:46:14;3.80;;;2.30;;
76989;SDS011;65924;47.250;11.332;2024-03-29T00:46:44;4.50;;;2.50;;
76989;SDS011;65924;47.250;11.332;2024-03-29T00:47:15;5.10;;;3.20;;
76989;SDS011;65924;47.250;11.332;2024-03-29T00:47:46;4.10;;;2.60;;
76989;SDS011;65924;47.250;11.332;2024-03-29T00:48:17;4.30;;;2.70;;
76989;SDS011;65924;47.250;11.332;2024-03-29T00:48:50;4.80;;;3.10;;
76989;SDS011;65924;47.250;11.332;2024-03-29T00:49:20;4.10;;;2.60;;
76989;SDS011;65924;47.250;11.332;2024-03-29T00:49:50;4.50;;;2.70;;
76989;SDS011;65924;47.250;11.332;2024-03-29T00:50:21;4.40;;;2.70;;
76989;SDS011;65924;47.250;11.332;2024-03-29T00:50:51;4.50;;;2.60;;
76989;SDS011;65924;47.250;11.332;2024-03-29T00:51:22;4.60;;;2.80;;
76989;SDS011;65924;47.250;11.332;2024-03-29T00:51:53;4.70;;;3.10;;
76989;SDS011;65924;47.250;11.332;2024-03-29T00:52:23;4.40;;;2.90;;
76989;SDS011;65924;47.250;11.332;2024-03-29T00:52:54;4.90;;;2.90;;
76989;SDS011;65924;47.250;11.332;2024-03-29T00:53:24;5.40;;;2.90;;
76989;SDS011;65924;47.250;11.332;2024-03-29T00:53:54;4.50;;;2.90;;
76989;SDS011;65924;47.250;11.332;2024-03-29T00:54:25;4.30;;;2.80;;
76989;SDS011;65924;47.250;11.332;2024-03-29T00:54:55;4.60;;;2.70;;
76989;SDS011;65924;47.250;11.332;2024-03-29T00:55:26;4.20;;;2.30;;
76989;SDS011;65924;47.250;11.332;2024-03-29T00:55:56;4.50;;;2.80;;
76989;SDS011;65924;47.250;11.332;2024-03-29T00:56:27;4.60;;;2.50;;
76989;SDS011;65924;47.250;11.332;2024-03-29T00:56:57;4.50;;;2.90;;
76989;SDS011;65924;47.250;11.332;2024-03-29T00:57:28;4.80;;;2.90;;
76989;SDS011;65924;47.250;11.332;2024-03-29T00:57:59;4.50;;;2.90;;
76989;SDS011;65924;47.250;11.332;2024-03-29T00:58:29;3.90;;;2.10;;
76989;SDS011;65924;47.250;11.332;2024-03-29T00:59:00;4.20;;;2.30;;
76989;SDS011;65924;47.250;11.332;2024-03-29T00:59:30;4.60;;;2.70;;
76989;SDS011;65924;47.250;11.332;2024-03-29T01:00:04;4.10;;;2.50;;
76989;SDS011;65924;47.250;11.332;2024-03-29T01:00:35;4.90;;;2.70;;
76989;SDS011;65924;47.250;11.332;2024-03-29T01:01:05;7.30;;;2.70;;
76989;SDS011;65924;47.250;11.332;2024-03-29T01:01:36;5.10;;;2.30;;
76989;SDS011;65924;47.250;11.332;2024-03-29T01:02:06;4.80;;;3.00;;
76989;SDS011;65924;47.250;11.332;2024-03-29T01:02:37;4.60;;;2.80;;
76989;SDS011;65924;47.250;11.332;2024-03-29T01:03:07;4.30;;;2.50;;
76989;SDS011;65924;47.250;11.332;2024-03-29T01:03:37;4.30;;;2.50;;
76989;SDS011;65924;47.250;11.332;2024-03-29T01:04:08;4.40;;;2.10;;
76989;SDS011;65924;47.250;11.332;2024-03-29T01:04:38;4.30;;;2.20;;
76989;SDS011;65924;47.250;11.332;2024-03-29T01:05:10;4.40;;;2.80;;
76989;SDS011;65924;47.250;11.332;2024-03-29T01:05:41;4.00;;;2.40;;
76989;SDS011;65924;47.250;11.332;2024-03-29T01:06:11;4.50;;;2.50;;
76989;SDS011;65924;47.250;11.332;2024-03-29T01:06:42;4.50;;;2.70;;
76989;SDS011;65924;47.250;11.332;2024-03-29T01:07:13;4.30;;;2.40;;
76989;SDS011;65924;47.250;11.332;2024-03-29T01:07:46;4.70;;;2.70;;
76989;SDS011;65924;47.250;11.332;2024-03-29T01:08:16;4.80;;;2.90;;
76989;SDS011;65924;47.250;11.332;2024-03-29T01:08:47;6.20;;;2.70;;
76989;SDS011;65924;47.250;11.332;2024-03-29T01:09:17;4.30;;;2.50;;
76989;SDS011;65924;47.250;11.332;2024-03-29T01:09:48;5.90;;;2.70;;
76989;SDS011;65924;47.250;11.332;2024-03-29T01:10:18;5.20;;;3.00;;
76989;SDS011;65924;47.250;11.332;2024-03-29T01:10:49;5.10;;;3.50;;
76989;SDS011;65924;47.250;11.332;2024-03-29T01:11:19;4.60;;;3.00;;
76989;SDS011;65924;47.250;11.332;2024-03-29T01:11:50;5.00;;;3.10;;
76989;SDS011;65924;47.250;11.332;2024-03-29T01:12:21;4.80;;;3.30;;
76989;SDS011;65924;47.250;11.332;2024-03-29T01:12:52;5.00;;;3.10;;
76989;SDS011;65924;47.250;11.332;2024-03-29T01:13:23;6.00;;;3.90;;
76989;SDS011;65924;47.250;11.332;2024-03-29T01:13:53;5.90;;;3.30;;
76989;SDS011;65924;47.250;11.332;2024-03-29T01:14:24;5.00;;;2.30;;
76989;SDS011;65924;47.250;11.332;2024-03-29T01:14:55;5.40;;;3.30;;
76989;SDS011;65924;47.250;11.332;2024-03-29T01:15:26;4.90;;;3.10;;
76989;SDS011;65924;47.250;11.332;2024-03-29T01:15:56;4.80;;;2.90;;
76989;SDS011;65924;47.250;11.332;2024-03-29T01:16:27;4.70;;;2.90;;
76989;SDS011;65924;47.250;11.332;2024-03-29T01:16:57;4.30;;;2.40;;
76989;SDS011;65924;47.250;11.332;2024-03-29T01:17:28;5.10;;;2.60;;
76989;SDS011;65924;47.250;11.332;2024-03-29T01:17:59;4.90;;;3.00;;
76989;SDS011;65924;47.250;11.332;2024-03-29T01:18:29;4.90;;;2.90;;
76989;SDS011;65924;47.250;11.332;2024-03-29T01:19:00;4.50;;;2.70;;
76989;SDS011;65924;47.250;11.332;2024-03-29T01:19:30;4.20;;;2.70;;
76989;SDS011;65924;47.250;11.332;2024-03-29T01:20:01;4.50;;;2.70;;
76989;SDS011;65924;47.250;11.332;2024-03-29T01:20:31;4.50;;;2.60;;
76989;SDS011;65924;47.250;11.332;2024-03-29T01:21:01;5.80;;;2.60;;
76989;SDS011;65924;47.250;11.332;2024-03-29T01:21:32;4.00;;;2.20;;
76989;SDS011;65924;47.250;11.332;2024-03-29T01:22:04;4.10;;;2.40;;
76989;SDS011;65924;47.250;11.332;2024-03-29T01:22:34;4.30;;;2.40;;
76989;SDS011;65924;47.250;11.332;2024-03-29T01:23:05;4.60;;;2.60;;
76989;SDS011;65924;47.250;11.332;2024-03-29T01:23:35;5.40;;;2.60;;
76989;SDS011;65924;47.250;11.332;2024-03-29T01:24:08;5.60;;;3.00;;
76989;SDS011;65924;47.250;11.332;2024-03-29T01:24:39;4.60;;;2.30;;
76989;SDS011;65924;47.250;11.332;2024-03-29T01:25:09;5.10;;;3.00;;
76989;SDS011;65924;47.250;11.332;2024-03-29T01:25:42;6.00;;;3.00;;
76989;SDS011;65924;47.250;11.332;2024-03-29T01:26:12;5.10;;;2.50;;
76989;SDS011;65924;47.250;11.332;2024-03-29T01:26:43;7.00;;;3.10;;
76989;SDS011;65924;47.250;11.332;2024-03-29T01:27:13;4.40;;;2.50;;
76989;SDS011;65924;47.250;11.332;2024-03-29T01:27:44;4.70;;;2.90;;
76989;SDS011;65924;47.250;11.332;2024-03-29T01:28:14;4.90;;;2.80;;
76989;SDS011;65924;47.250;11.332;2024-03-29T01:28:44;4.50;;;2.90;;
76989;SDS011;65924;47.250;11.332;2024-03-29T01:29:15;4.90;;;2.50;;
76989;SDS011;65924;47.250;11.332;2024-03-29T01:29:46;5.00;;;2.80;;
76989;SDS011;65924;47.250;11.332;2024-03-29T01:30:16;4.80;;;2.70;;
76989;SDS011;65924;47.250;11.332;2024-03-29T01:30:53;4.90;;;3.20;;
76989;SDS011;65924;47.250;11.332;2024-03-29T01:31:24;5.40;;;3.30;;
76989;SDS011;65924;47.250;11.332;2024-03-29T01:31:56;7.10;;;3.10;;
76989;SDS011;65924;47.250;11.332;2024-03-29T01:32:26;4.70;;;2.60;;
76989;SDS011;65924;47.250;11.332;2024-03-29T01:32:57;4.50;;;3.00;;
76989;SDS011;65924;47.250;11.332;2024-03-29T01:33:27;4.80;;;3.10;;
76989;SDS011;65924;47.250;11.332;2024-03-29T01:33:58;4.40;;;2.40;;
76989;SDS011;65924;47.250;11.332;2024-03-29T01:34:29;3.80;;;2.20;;
76989;SDS011;65924;47.250;11.332;2024-03-29T01:34:59;4.50;;;2.60;;
76989;SDS011;65924;47.250;11.332;2024-03-29T01:35:30;4.80;;;2.70;;
76989;SDS011;65924;47.250;11.332;2024-03-29T01:36:00;4.10;;;2.70;;
76989;SDS011;65924;47.250;11.332;2024-03-29T01:36:31;4.80;;;2.90;;
76989;SDS011;65924;47.250;11.332;2024-03-29T01:37:01;4.30;;;2.50;;
76989;SDS011;65924;47.250;11.332;2024-03-29T01:37:32;4.80;;;3.40;;
76989;SDS011;65924;47.250;11.332;2024-03-29T01:38:02;4.10;;;2.70;;
76989;SDS011;65924;47.250;11.332;2024-03-29T01:38:33;4.60;;;2.70;;
76989;SDS011;65924;47.250;11.332;2024-03-29T01:39:04;4.90;;;2.60;;
76989;SDS011;65924;47.250;11.332;2024-03-29T01:39:37;4.60;;;2.80;;
76989;SDS011;65924;47.250;11.332;2024-03-29T01:40:08;4.30;;;2.70;;
76989;SDS011;65924;47.250;11.332;2024-03-29T01:40:40;4.10;;;2.50;;
76989;SDS011;65924;47.250;11.332;2024-03-29T01:41:11;5.20;;;2.90;;
76989;SDS011;65924;47.250;11.332;2024-03-29T01:41:42;4.60;;;2.70;;
76989;SDS011;65924;47.250;11.332;2024-03-29T01:42:13;4.60;;;2.80;;
76989;SDS011;65924;47.250;11.332;2024-03-29T01:42:44;5.00;;;3.10;;
76989;SDS011;65924;47.250;11.332;2024-03-29T01:43:14;4.60;;;3.20;;
76989;SDS011;65924;47.250;11.332;2024-03-29T01:43:45;4.50;;;3.00;;
76989;SDS011;65924;47.250;11.332;2024-03-29T01:44:15;5.60;;;3.20;;
76989;SDS011;65924;47.250;11.332;2024-03-29T01:44:46;4.80;;;3.00;;
76989;SDS011;65924;47.250;11.332;2024-03-29T01:45:16;5.10;;;3.30;;
76989;SDS011;65924;47.250;11.332;2024-03-29T01:45:47;4.60;;;3.10;;
76989;SDS011;65924;47.250;11.332;2024-03-29T01:46:19;5.20;;;3.40;;
76989;SDS011;65924;47.250;11.332;2024-03-29T01:46:50;4.90;;;3.40;;
76989;SDS011;65924;47.250;11.332;2024-03-29T01:47:21;4.80;;;3.20;;
76989;SDS011;65924;47.250;11.332;2024-03-29T01:47:51;4.70;;;2.90;;
76989;SDS011;65924;47.250;11.332;2024-03-29T01:48:23;5.00;;;3.10;;
76989;SDS011;65924;47.250;11.332;2024-03-29T01:48:54;5.50;;;3.40;;
76989;SDS011;65924;47.250;11.332;2024-03-29T01:49:25;6.30;;;3.00;;
76989;SDS011;65924;47.250;11.332;2024-03-29T01:49:56;4.80;;;3.00;;
76989;SDS011;65924;47.250;11.332;2024-03-29T01:50:27;4.80;;;3.10;;
76989;SDS011;65924;47.250;11.332;2024-03-29T01:50:57;4.70;;;3.10;;
76989;SDS011;65924;47.250;11.332;2024-03-29T01:51:28;5.10;;;3.30;;
76989;SDS011;65924;47.250;11.332;2024-03-29T01:51:59;5.20;;;3.30;;
76989;SDS011;65924;47.250;11.332;2024-03-29T01:52:29;4.90;;;3.30;;
76989;SDS011;65924;47.250;11.332;2024-03-29T01:53:01;4.80;;;3.20;;
76989;SDS011;65924;47.250;11.332;2024-03-29T01:53:32;4.90;;;3.30;;
76989;SDS011;65924;47.250;11.332;2024-03-29T01:54:02;5.00;;;3.00;;
76989;SDS011;65924;47.250;11.332;2024-03-29T01:54:33;5.10;;;3.10;;
76989;SDS011;65924;47.250;11.332;2024-03-29T01:55:04;5.60;;;3.30;;
76989;SDS011;65924;47.250;11.332;2024-03-29T01:55:35;5.00;;;3.00;;
76989;SDS011;65924;47.250;11.332;2024-03-29T01:56:06;4.70;;;3.00;;
76989;SDS011;65924;47.250;11.332;2024-03-29T01:56:37;4.90;;;3.10;;
76989;SDS011;65924;47.250;11.332;2024-03-29T01:57:40;5.20;;;3.70;;
76989;SDS011;65924;47.250;11.332;2024-03-29T01:58:11;5.00;;;3.20;;
76989;SDS011;65924;47.250;11.332;2024-03-29T01:58:41;5.90;;;4.20;;
76989;SDS011;65924;47.250;11.332;2024-03-29T01:59:14;6.60;;;4.40;;
76989;SDS011;65924;47.250;11.332;2024-03-29T01:59:46;5.60;;;3.70;;
76989;SDS011;65924;47.250;11.332;2024-03-29T02:00:17;5.60;;;3.80;;
76989;SDS011;65924;47.250;11.332;2024-03-29T02:00:52;5.50;;;4.00;;
76989;SDS011;65924;47.250;11.332;2024-03-29T02:01:28;6.90;;;5.10;;
76989;SDS011;65924;47.250;11.332;2024-03-29T02:02:00;7.60;;;5.30;;
76989;SDS011;65924;47.250;11.332;2024-03-29T02:02:32;7.00;;;5.10;;
76989;SDS011;65924;47.250;11.332;2024-03-29T02:03:02;7.90;;;6.20;;
76989;SDS011;65924;47.250;11.332;2024-03-29T02:03:35;8.30;;;6.00;;
76989;SDS011;65924;47.250;11.332;2024-03-29T02:04:06;7.20;;;4.80;;
76989;SDS011;65924;47.250;11.332;2024-03-29T02:04:37;6.90;;;5.00;;
76989;SDS011;65924;47.250;11.332;2024-03-29T02:05:08;8.10;;;5.00;;
76989;SDS011;65924;47.250;11.332;2024-03-29T02:05:39;7.40;;;5.20;;
76989;SDS011;65924;47.250;11.332;2024-03-29T02:06:10;7.60;;;5.30;;
76989;SDS011;65924;47.250;11.332;2024-03-29T02:06:42;7.70;;;5.30;;
76989;SDS011;65924;47.250;11.332;2024-03-29T02:07:13;6.80;;;4.50;;
76989;SDS011;65924;47.250;11.332;2024-03-29T02:08:18;6.00;;;4.10;;
76989;SDS011;65924;47.250;11.332;2024-03-29T02:08:52;6.30;;;4.20;;
76989;SDS011;65924;47.250;11.332;2024-03-29T02:09:25;6.10;;;4.10;;
76989;SDS011;65924;47.250;11.332;2024-03-29T02:09:56;5.50;;;3.60;;
76989;SDS011;65924;47.250;11.332;2024-03-29T02:10:27;5.50;;;4.10;;
76989;SDS011;65924;47.250;11.332;2024-03-29T02:10:57;5.70;;;3.70;;
76989;SDS011;65924;47.250;11.332;2024-03-29T02:11:28;6.80;;;4.10;;
76989;SDS011;65924;47.250;11.332;2024-03-29T02:11:58;5.60;;;3.60;;
76989;SDS011;65924;47.250;11.332;2024-03-29T02:12:29;5.70;;;3.80;;
76989;SDS011;65924;47.250;11.332;2024-03-29T02:12:59;6.50;;;4.30;;
76989;SDS011;65924;47.250;11.332;2024-03-29T02:13:30;5.90;;;4.10;;
76989;SDS011;65924;47.250;11.332;2024-03-29T02:14:02;6.60;;;4.50;;
76989;SDS011;65924;47.250;11.332;2024-03-29T02:14:33;5.90;;;3.80;;
76989;SDS011;65924;47.250;11.332;2024-03-29T02:15:04;5.60;;;3.90;;
76989;SDS011;65924;47.250;11.332;2024-03-29T02:15:35;5.70;;;4.30;;
76989;SDS011;65924;47.250;11.332;2024-03-29T02:16:06;6.20;;;4.40;;
76989;SDS011;65924;47.250;11.332;2024-03-29T02:16:38;6.10;;;4.70;;
76989;SDS011;65924;47.250;11.332;2024-03-29T02:17:08;6.30;;;4.40;;
76989;SDS011;65924;47.250;11.332;2024-03-29T02:17:39;7.00;;;5.00;;
76989;SDS011;65924;47.250;11.332;2024-03-29T02:18:09;6.60;;;5.00;;
76989;SDS011;65924;47.250;11.332;2024-03-29T02:18:40;6.80;;;4.90;;
76989;SDS011;65924;47.250;11.332;2024-03-29T02:19:10;7.10;;;4.90;;
76989;SDS011;65924;47.250;11.332;2024-03-29T02:19:41;6.80;;;5.00;;
76989;SDS011;65924;47.250;11.332;2024-03-29T02:20:11;6.80;;;4.80;;
76989;SDS011;65924;47.250;11.332;2024-03-29T02:20:42;7.00;;;4.70;;
76989;SDS011;65924;47.250;11.332;2024-03-29T02:21:12;6.20;;;4.50;;
76989;SDS011;65924;47.250;11.332;2024-03-29T02:21:44;6.30;;;4.70;;
76989;SDS011;65924;47.250;11.332;2024-03-29T02:22:15;6.70;;;4.70;;
76989;SDS011;65924;47.250;11.332;2024-03-29T02:22:53;6.90;;;5.30;;
76989;SDS011;65924;47.250;11.332;2024-03-29T02:23:27;5.70;;;3.90;;
76989;SDS011;65924;47.250;11.332;2024-03-29T02:24:07;6.10;;;4.00;;
76989;SDS011;65924;47.250;11.332;2024-03-29T02:24:37;6.50;;;4.70;;
76989;SDS011;65924;47.250;11.332;2024-03-29T02:25:08;5.70;;;4.20;;
76989;SDS011;65924;47.250;11.332;2024-03-29T02:25:38;7.30;;;4.10;;
76989;SDS011;65924;47.250;11.332;2024-03-29T02:26:10;6.30;;;4.10;;
76989;SDS011;65924;47.250;11.332;2024-03-29T02:26:40;5.70;;;4.00;;
76989;SDS011;65924;47.250;11.332;2024-03-29T02:27:16;5.70;;;4.10;;
76989;SDS011;65924;47.250;11.332;2024-03-29T02:27:47;5.70;;;4.10;;
76989;SDS011;65924;47.250;11.332;2024-03-29T02:28:17;7.10;;;3.90;;
76989;SDS011;65924;47.250;11.332;2024-03-29T02:28:48;6.20;;;4.50;;
76989;SDS011;65924;47.250;11.332;2024-03-29T02:29:18;6.40;;;4.20;;
76989;SDS011;65924;47.250;11.332;2024-03-29T02:29:52;6.30;;;4.20;;
76989;SDS011;65924;47.250;11.332;2024-03-29T02:30:22;6.20;;;4.00;;
76989;SDS011;65924;47.250;11.332;2024-03-29T02:30:53;5.90;;;4.30;;
76989;SDS011;65924;47.250;11.332;2024-03-29T02:31:23;6.10;;;4.30;;
76989;SDS011;65924;47.250;11.332;2024-03-29T02:31:54;6.20;;;4.60;;
76989;SDS011;65924;47.250;11.332;2024-03-29T02:32:25;6.10;;;4.30;;
76989;SDS011;65924;47.250;11.332;2024-03-29T02:32:55;7.00;;;4.80;;
76989;SDS011;65924;47.250;11.332;2024-03-29T02:33:26;6.90;;;4.60;;
76989;SDS011;65924;47.250;11.332;2024-03-29T02:33:56;7.10;;;4.90;;
76989;SDS011;65924;47.250;11.332;2024-03-29T02:34:27;6.00;;;4.30;;
76989;SDS011;65924;47.250;11.332;2024-03-29T02:34:57;6.10;;;4.30;;
76989;SDS011;65924;47.250;11.332;2024-03-29T02:35:28;6.30;;;4.80;;
76989;SDS011;65924;47.250;11.332;2024-03-29T02:35:59;6.70;;;4.60;;
76989;SDS011;65924;47.250;11.332;2024-03-29T02:36:29;6.20;;;4.40;;
76989;SDS011;65924;47.250;11.332;2024-03-29T02:37:01;6.70;;;5.10;;
76989;SDS011;65924;47.250;11.332;2024-03-29T02:37:32;7.00;;;5.00;;
76989;SDS011;65924;47.250;11.332;2024-03-29T02:38:02;6.90;;;4.30;;
76989;SDS011;65924;47.250;11.332;2024-03-29T02:38:32;7.50;;;5.30;;
76989;SDS011;65924;47.250;11.332;2024-03-29T02:39:03;6.00;;;4.30;;
76989;SDS011;65924;47.250;11.332;2024-03-29T02:39:34;6.50;;;4.70;;
76989;SDS011;65924;47.250;11.332;2024-03-29T02:40:04;7.30;;;4.80;;
76989;SDS011;65924;47.250;11.332;2024-03-29T02:40:35;7.30;;;5.60;;
76989;SDS011;65924;47.250;11.332;2024-03-29T02:41:06;6.50;;;5.00;;
76989;SDS011;65924;47.250;11.332;2024-03-29T02:41:36;6.40;;;4.60;;
76989;SDS011;65924;47.250;11.332;2024-03-29T02:42:07;6.80;;;4.70;;
76989;SDS011;65924;47.250;11.332;2024-03-29T02:42:37;6.30;;;4.80;;
76989;SDS011;65924;47.250;11.332;2024-03-29T02:43:08;6.30;;;4.40;;
76989;SDS011;65924;47.250;11.332;2024-03-29T02:43:39;6.60;;;4.70;;
76989;SDS011;65924;47.250;11.332;2024-03-29T02:44:09;6.90;;;4.60;;
76989;SDS011;65924;47.250;11.332;2024-03-29T02:44:41;6.80;;;4.80;;
76989;SDS011;65924;47.250;11.332;2024-03-29T02:45:11;6.70;;;4.60;;
76989;SDS011;65924;47.250;11.332;2024-03-29T02:45:42;8.30;;;5.30;;
76989;SDS011;65924;47.250;11.332;2024-03-29T02:46:13;7.00;;;4.80;;
76989;SDS011;65924;47.250;11.332;2024-03-29T02:46:43;6.40;;;4.60;;
76989;SDS011;65924;47.250;11.332;2024-03-29T02:47:14;7.20;;;4.80;;
76989;SDS011;65924;47.250;11.332;2024-03-29T02:47:48;7.40;;;5.00;;
76989;SDS011;65924;47.250;11.332;2024-03-29T02:48:18;7.80;;;4.90;;
76989;SDS011;65924;47.250;11.332;2024-03-29T02:48:49;6.50;;;4.50;;
76989;SDS011;65924;47.250;11.332;2024-03-29T02:49:20;7.70;;;4.90;;
76989;SDS011;65924;47.250;11.332;2024-03-29T02:49:50;7.60;;;5.20;;
76989;SDS011;65924;47.250;11.332;2024-03-29T02:50:21;6.80;;;4.30;;
76989;SDS011;65924;47.250;11.332;2024-03-29T02:50:52;7.30;;;5.00;;
76989;SDS011;65924;47.250;11.332;2024-03-29T02:51:22;7.00;;;5.00;;
76989;SDS011;65924;47.250;11.332;2024-03-29T02:51:53;6.50;;;4.70;;
76989;SDS011;65924;47.250;11.332;2024-03-29T02:52:26;6.90;;;4.80;;
76989;SDS011;65924;47.250;11.332;2024-03-29T02:52:56;6.80;;;4.90;;
76989;SDS011;65924;47.250;11.332;2024-03-29T02:53:27;6.50;;;4.70;;
76989;SDS011;65924;47.250;11.332;2024-03-29T02:53:57;6.60;;;5.00;;
76989;SDS011;65924;47.250;11.332;2024-03-29T02:54:28;6.50;;;4.70;;
76989;SDS011;65924;47.250;11.332;2024-03-29T02:54:59;6.60;;;4.80;;
76989;SDS011;65924;47.250;11.332;2024-03-29T02:55:30;7.30;;;5.40;;
76989;SDS011;65924;47.250;11.332;2024-03-29T02:56:04;6.60;;;4.60;;
76989;SDS011;65924;47.250;11.332;2024-03-29T02:56:35;6.50;;;4.80;;
76989;SDS011;65924;47.250;11.332;2024-03-29T02:57:05;7.20;;;5.50;;
76989;SDS011;65924;47.250;11.332;2024-03-29T02:57:39;6.90;;;5.40;;
76989;SDS011;65924;47.250;11.332;2024-03-29T02:58:09;6.90;;;4.90;;
76989;SDS011;65924;47.250;11.332;2024-03-29T02:58:41;6.90;;;4.90;;
76989;SDS011;65924;47.250;11.332;2024-03-29T02:59:11;7.30;;;4.60;;
76989;SDS011;65924;47.250;11.332;2024-03-29T02:59:42;6.90;;;4.90;;
76989;SDS011;65924;47.250;11.332;2024-03-29T03:00:13;6.70;;;4.90;;
76989;SDS011;65924;47.250;11.332;2024-03-29T03:00:43;6.30;;;4.30;;
76989;SDS011;65924;47.250;11.332;2024-03-29T03:01:14;6.70;;;5.00;;
76989;SDS011;65924;47.250;11.332;2024-03-29T03:01:44;6.30;;;4.60;;
76989;SDS011;65924;47.250;11.332;2024-03-29T03:02:15;6.50;;;4.50;;
76989;SDS011;65924;47.250;11.332;2024-03-29T03:02:45;6.40;;;4.60;;
76989;SDS011;65924;47.250;11.332;2024-03-29T03:03:16;6.20;;;4.40;;
76989;SDS011;65924;47.250;11.332;2024-03-29T03:03:47;5.80;;;4.30;;
76989;SDS011;65924;47.250;11.332;2024-03-29T03:04:17;6.40;;;4.20;;